createdAt,value
2022-08-26T00:01:54.322Z,8.13
2022-08-26T00:04:23.462Z,8.05
2022-08-26T00:06:50.198Z,10.23
2022-08-26T00:09:16.967Z,8.80
2022-08-26T00:11:47.268Z,10.02
2022-08-26T00:14:14.784Z,8.70
2022-08-26T00:16:47.275Z,7.75
2022-08-26T00:19:18.806Z,8.03
2022-08-26T00:21:48.683Z,8.77
2022-08-26T00:24:15.968Z,8.52
2022-08-26T00:26:42.615Z,9.80
2022-08-26T00:29:09.596Z,8.27
2022-08-26T00:31:37.223Z,9.67
2022-08-26T00:34:04.360Z,8.70
2022-08-26T00:36:31.882Z,9.13
2022-08-26T00:38:58.736Z,10.15
2022-08-26T00:41:25.193Z,8.73
2022-08-26T00:43:53.143Z,8.93
2022-08-26T00:46:25.256Z,8.65
2022-08-26T00:48:58.981Z,9.35
2022-08-26T00:51:29.592Z,8.30
2022-08-26T00:54:07.349Z,8.50
2022-08-26T00:56:47.041Z,8.10
2022-08-26T01:01:59.220Z,9.30
2022-08-26T01:04:26.098Z,9.15
2022-08-26T01:06:53.952Z,8.63
2022-08-26T01:09:23.105Z,8.00
2022-08-26T01:11:53.005Z,9.25
2022-08-26T01:14:21.584Z,8.68
2022-08-26T01:16:49.166Z,8.73
2022-08-26T01:19:17.879Z,8.93
2022-08-26T01:21:51.944Z,8.70
2022-08-26T01:24:18.593Z,8.25
2022-08-26T01:26:45.635Z,8.45
2022-08-26T01:29:17.779Z,8.70
2022-08-26T01:31:52.205Z,10.20
2022-08-26T01:34:31.008Z,9.47
2022-08-26T01:37:33.920Z,9.40
2022-08-26T01:40:00.748Z,9.63
2022-08-26T01:42:28.545Z,8.50
2022-08-26T01:45:04.059Z,7.68
2022-08-26T01:47:33.171Z,8.90
2022-08-26T01:50:03.127Z,9.18
2022-08-26T01:52:33.514Z,9.95
2022-08-26T01:55:00.904Z,9.38
2022-08-26T01:57:28.958Z,9.32
2022-08-26T02:00:00.865Z,9.60
2022-08-26T02:02:27.836Z,10.65
2022-08-26T02:04:59.717Z,9.00
2022-08-26T02:07:27.596Z,9.15
2022-08-26T02:09:55.275Z,8.93
2022-08-26T02:12:22.934Z,8.87
2022-08-26T02:14:54.066Z,8.60
2022-08-26T02:17:26.486Z,9.32
2022-08-26T02:19:53.399Z,9.85
2022-08-26T02:22:22.538Z,9.73
2022-08-26T02:24:58.148Z,9.87
2022-08-26T02:27:32.205Z,11.10
2022-08-26T02:30:08.007Z,9.05
2022-08-26T02:32:34.514Z,8.93
2022-08-26T02:35:01.930Z,10.02
2022-08-26T02:37:31.115Z,10.83
2022-08-26T02:39:57.910Z,10.10
2022-08-26T02:42:24.407Z,8.65
2022-08-26T02:44:51.777Z,8.65
2022-08-26T02:47:18.426Z,8.25
2022-08-26T02:49:47.265Z,9.43
2022-08-26T02:52:13.976Z,11.18
2022-08-26T02:54:40.424Z,9.13
2022-08-26T02:57:07.009Z,9.77
2022-08-26T02:59:35.890Z,9.32
2022-08-26T03:02:03.038Z,10.47
2022-08-26T03:04:30.395Z,9.55
2022-08-26T03:06:59.933Z,10.82
2022-08-26T03:09:27.166Z,9.13
2022-08-26T03:11:55.419Z,9.55
2022-08-26T03:14:23.905Z,10.60
2022-08-26T03:16:52.249Z,10.18
2022-08-26T03:19:19.018Z,9.13
2022-08-26T03:21:47.235Z,9.30
2022-08-26T03:24:14.362Z,10.75
2022-08-26T03:26:40.875Z,8.97
2022-08-26T03:29:37.880Z,10.18
2022-08-26T03:32:06.203Z,9.65
2022-08-26T03:34:33.083Z,17.25
2022-08-26T03:36:59.651Z,9.90
2022-08-26T03:39:26.298Z,10.53
2022-08-26T03:41:53.654Z,9.68
2022-08-26T03:44:20.969Z,9.32
2022-08-26T03:46:47.597Z,10.18
2022-08-26T03:49:15.190Z,10.13
2022-08-26T03:51:42.118Z,10.47
2022-08-26T03:54:10.075Z,9.77
2022-08-26T03:56:37.061Z,9.80
2022-08-26T03:59:05.045Z,11.13
2022-08-26T04:01:34.580Z,10.40
2022-08-26T04:04:01.518Z,9.77
2022-08-26T04:06:34.164Z,9.20
2022-08-26T04:09:05.345Z,8.10
2022-08-26T04:11:34.661Z,9.73
2022-08-26T04:14:06.424Z,8.90
2022-08-26T04:16:34.291Z,10.73
2022-08-26T04:19:02.161Z,9.48
2022-08-26T04:21:28.999Z,10.65
2022-08-26T04:23:56.055Z,10.85
2022-08-26T04:26:25.569Z,11.65
2022-08-26T04:28:54.653Z,9.10
2022-08-26T04:31:21.448Z,10.15
2022-08-26T04:33:50.083Z,9.27
2022-08-26T04:36:17.649Z,10.32
2022-08-26T04:38:47.486Z,11.50
2022-08-26T04:41:15.504Z,9.47
2022-08-26T04:43:44.909Z,9.40
2022-08-26T04:46:13.692Z,8.27
2022-08-26T04:48:41.100Z,10.60
2022-08-26T04:51:09.099Z,9.27
2022-08-26T04:53:36.539Z,10.17
2022-08-26T04:56:03.927Z,10.05
2022-08-26T04:58:31.380Z,9.48
2022-08-26T05:00:58.457Z,9.68
2022-08-26T05:03:27.158Z,13.15
2022-08-26T05:05:54.139Z,9.80
2022-08-26T05:08:22.410Z,8.65
2022-08-26T05:10:51.741Z,9.30
2022-08-26T05:13:20.692Z,10.48
2022-08-26T05:15:48.125Z,9.05
2022-08-26T05:18:17.670Z,11.77
2022-08-26T05:20:48.840Z,9.73
2022-08-26T05:23:16.573Z,9.98
2022-08-26T05:25:46.989Z,10.57
2022-08-26T05:28:15.525Z,10.02
2022-08-26T05:30:42.590Z,11.00
2022-08-26T05:33:12.027Z,8.85
2022-08-26T05:35:39.177Z,8.35
2022-08-26T05:38:12.385Z,9.77
2022-08-26T05:40:42.805Z,9.73
2022-08-26T05:43:13.204Z,7.53
2022-08-26T05:45:46.151Z,8.45
2022-08-26T05:48:15.382Z,8.07
2022-08-26T05:50:45.756Z,7.60
2022-08-26T05:53:14.129Z,6.97
2022-08-26T05:55:49.124Z,7.27
2022-08-26T05:58:17.455Z,7.57
2022-08-26T06:00:44.553Z,8.43
2022-08-26T06:03:11.168Z,7.65
2022-08-26T06:05:41.968Z,8.13
2022-08-26T06:08:16.132Z,7.10
2022-08-26T06:10:50.921Z,9.68
2022-08-26T06:13:20.831Z,7.57
2022-08-26T06:15:50.077Z,7.80
2022-08-26T06:18:20.841Z,10.20
2022-08-26T06:20:54.626Z,10.07
2022-08-26T06:23:43.596Z,9.45
2022-08-26T06:26:11.431Z,12.15
2022-08-26T06:28:38.252Z,10.00
2022-08-26T06:31:07.760Z,11.32
2022-08-26T06:33:35.029Z,9.47
2022-08-26T06:36:02.210Z,7.68
2022-08-26T06:38:28.748Z,8.45
2022-08-26T06:40:55.442Z,8.75
2022-08-26T06:43:25.767Z,13.65
2022-08-26T06:45:59.698Z,9.40
2022-08-26T06:48:26.211Z,8.70
2022-08-26T06:51:03.358Z,7.45
2022-08-26T06:53:29.930Z,8.95
2022-08-26T06:55:56.443Z,8.23
2022-08-26T06:58:23.344Z,6.50
2022-08-26T07:00:51.086Z,8.00
2022-08-26T07:03:18.152Z,11.05
2022-08-26T07:05:44.793Z,9.35
2022-08-26T07:08:12.030Z,8.75
2022-08-26T07:10:38.766Z,10.27
2022-08-26T07:13:05.882Z,9.70
2022-08-26T07:15:36.082Z,10.32
2022-08-26T07:18:03.079Z,12.38
2022-08-26T07:20:29.529Z,11.05
2022-08-26T07:22:56.114Z,10.77
2022-08-26T07:25:22.732Z,11.68
2022-08-26T07:27:53.882Z,11.90
2022-08-26T07:30:21.305Z,7.80
2022-08-26T07:32:48.219Z,10.48
2022-08-26T07:35:14.836Z,10.43
2022-08-26T07:37:42.408Z,9.07
2022-08-26T07:40:12.853Z,8.45
2022-08-26T07:42:40.392Z,9.10
2022-08-26T07:45:09.365Z,10.45
2022-08-26T07:47:35.883Z,12.80
2022-08-26T07:50:02.596Z,14.27
2022-08-26T07:52:30.647Z,11.05
2022-08-26T07:54:59.248Z,8.80
2022-08-26T07:57:26.686Z,11.02
2022-08-26T07:59:55.234Z,13.93
2022-08-26T08:02:23.538Z,10.38
2022-08-26T08:04:51.690Z,11.48
2022-08-26T08:07:18.337Z,11.07
2022-08-26T08:09:45.238Z,10.20
2022-08-26T08:12:14.276Z,11.27
2022-08-26T08:14:41.146Z,13.57
2022-08-26T08:17:08.471Z,11.40
2022-08-26T08:19:37.043Z,10.30
2022-08-26T08:22:17.071Z,12.85
2022-08-26T08:24:45.080Z,13.53
2022-08-26T08:27:11.622Z,10.40
2022-08-26T08:29:38.580Z,12.45
2022-08-26T08:32:05.724Z,13.80
2022-08-26T08:34:38.287Z,13.43
2022-08-26T08:37:08.594Z,11.73
2022-08-26T08:39:36.649Z,14.63
2022-08-26T08:42:27.143Z,11.68
2022-08-26T08:44:58.439Z,13.52
2022-08-26T08:47:33.783Z,14.35
2022-08-26T08:50:25.077Z,12.63
2022-08-26T08:53:03.642Z,15.32
2022-08-26T08:55:57.924Z,15.95
2022-08-26T08:58:51.557Z,14.43
2022-08-26T09:01:42.109Z,13.73
2022-08-26T09:04:25.145Z,13.70
2022-08-26T09:06:55.673Z,11.95
2022-08-26T09:09:41.560Z,12.57
2022-08-26T09:12:13.501Z,12.65
2022-08-26T09:14:40.362Z,11.85
2022-08-26T09:17:26.268Z,12.77
2022-08-26T09:20:00.866Z,14.20
2022-08-26T09:22:32.965Z,12.68
2022-08-26T09:25:02.262Z,14.27
2022-08-26T09:27:50.513Z,12.82
2022-08-26T09:30:34.784Z,13.43
2022-08-26T09:33:10.797Z,12.95
2022-08-26T09:35:40.543Z,10.43
2022-08-26T09:38:32.805Z,14.38
2022-08-26T09:41:02.882Z,13.02
2022-08-26T09:43:32.766Z,12.73
2022-08-26T09:46:19.428Z,16.75
2022-08-26T09:48:46.331Z,16.58
2022-08-26T09:51:24.731Z,16.55
2022-08-26T09:53:57.026Z,17.15
2022-08-26T09:56:25.832Z,20.43
2022-08-26T09:58:56.044Z,20.00
2022-08-26T10:01:37.877Z,19.25
2022-08-26T10:04:15.655Z,16.80
2022-08-26T10:07:04.036Z,21.08
2022-08-26T10:09:37.232Z,19.47
2022-08-26T10:12:13.268Z,18.70
2022-08-26T10:15:01.801Z,18.55
2022-08-26T10:17:34.234Z,20.55
2022-08-26T10:20:32.830Z,22.23
2022-08-26T10:23:05.915Z,18.20
2022-08-26T10:25:42.508Z,18.38
2022-08-26T10:28:44.265Z,18.02
2022-08-26T10:31:27.896Z,19.35
2022-08-26T10:34:03.365Z,17.27
2022-08-26T10:39:45.055Z,21.90
2022-08-26T10:42:39.847Z,20.45
2022-08-26T10:45:22.569Z,19.80
2022-08-26T10:47:59.931Z,17.95
2022-08-26T10:50:39.279Z,18.17
2022-08-26T10:53:45.193Z,21.98
2022-08-26T10:56:33.435Z,22.10
2022-08-26T10:59:14.070Z,15.85
2022-08-26T11:01:57.416Z,19.85
2022-08-26T11:04:42.300Z,17.30
2022-08-26T11:07:48.694Z,19.38
2022-08-26T11:10:18.920Z,20.27
2022-08-26T11:12:49.375Z,18.98
2022-08-26T11:15:42.377Z,18.08
2022-08-26T11:18:35.532Z,15.23
2022-08-26T11:21:10.352Z,13.55
2022-08-26T11:23:50.695Z,14.82
2022-08-26T11:26:37.789Z,17.25
2022-08-26T11:29:59.310Z,15.77
2022-08-26T11:32:34.748Z,15.47
2022-08-26T11:35:21.807Z,19.08
2022-08-26T11:37:52.958Z,15.57
2022-08-26T11:40:41.190Z,15.40
2022-08-26T11:43:24.390Z,12.65
2022-08-26T11:46:09.249Z,13.57
2022-08-26T11:48:43.325Z,12.63
2022-08-26T11:51:25.174Z,12.35
2022-08-26T11:54:12.392Z,10.60
2022-08-26T11:56:41.947Z,11.43
2022-08-26T11:59:11.669Z,11.73
2022-08-26T12:01:44.994Z,11.68
2022-08-26T12:04:18.159Z,10.65
2022-08-26T12:06:53.434Z,12.30
2022-08-26T12:09:34.547Z,11.48
2022-08-26T12:12:42.411Z,12.70
2022-08-26T12:15:19.753Z,11.60
2022-08-26T12:17:53.519Z,11.50
2022-08-26T12:20:54.095Z,13.38
2022-08-26T12:23:30.873Z,12.82
2022-08-26T12:26:29.526Z,13.67
2022-08-26T12:28:58.033Z,12.85
2022-08-26T12:31:44.157Z,16.02
2022-08-26T12:34:17.938Z,16.15
2022-08-26T12:36:56.361Z,14.10
2022-08-26T12:39:29.074Z,13.87
2022-08-26T12:42:00.737Z,18.50
2022-08-26T12:44:42.394Z,15.88
2022-08-26T12:47:54.660Z,15.55
2022-08-26T12:50:29.001Z,18.10
2022-08-26T12:53:24.463Z,16.67
2022-08-26T12:56:00.111Z,17.92
2022-08-26T12:58:32.647Z,16.75
2022-08-26T13:01:06.234Z,16.08
2022-08-26T13:03:38.869Z,13.55
2022-08-26T13:06:31.082Z,17.33
2022-08-26T13:09:05.862Z,20.42
2022-08-26T13:11:39.820Z,19.52
2022-08-26T13:14:08.104Z,20.30
2022-08-26T13:16:36.823Z,21.25
2022-08-26T13:19:10.749Z,20.03
2022-08-26T13:21:47.781Z,17.73
2022-08-26T13:24:24.253Z,13.95
2022-08-26T13:26:51.225Z,15.55
2022-08-26T13:29:18.412Z,14.60
2022-08-26T13:31:46.284Z,18.97
2022-08-26T13:34:18.046Z,17.35
2022-08-26T13:36:45.249Z,15.68
2022-08-26T13:39:12.325Z,14.60
2022-08-26T13:41:38.778Z,15.27
2022-08-26T13:44:05.739Z,16.80
2022-08-26T13:46:32.659Z,17.50
2022-08-26T13:48:59.495Z,15.70
2022-08-26T13:51:27.894Z,17.00
2022-08-26T13:53:54.570Z,16.42
2022-08-26T13:56:21.545Z,18.17
2022-08-26T13:58:48.153Z,19.15
2022-08-26T14:01:16.283Z,18.48
2022-08-26T14:03:43.651Z,16.70
2022-08-26T14:06:10.432Z,17.17
2022-08-26T14:08:38.523Z,15.97
2022-08-26T14:11:05.248Z,15.50
2022-08-26T14:13:31.750Z,17.73
2022-08-26T14:16:01.365Z,16.27
2022-08-26T14:18:36.328Z,17.58
2022-08-26T14:21:06.202Z,18.37
2022-08-26T14:23:32.847Z,19.30
2022-08-26T14:26:00.011Z,18.48
2022-08-26T14:31:04.963Z,16.02
2022-08-26T14:33:38.534Z,17.97
2022-08-26T14:36:27.147Z,19.08
2022-08-26T14:38:58.342Z,18.42
2022-08-26T14:41:30.749Z,21.80
2022-08-26T14:44:13.543Z,23.45
2022-08-26T14:46:51.033Z,19.83
2022-08-26T14:49:19.058Z,20.33
2022-08-26T14:51:47.385Z,20.45
2022-08-26T14:54:16.139Z,22.52
2022-08-26T14:57:06.297Z,19.60
2022-08-26T14:59:42.961Z,19.07
2022-08-26T15:02:32.549Z,21.13
2022-08-26T15:05:02.220Z,17.92
2022-08-26T15:07:29.886Z,20.45
2022-08-26T15:09:58.208Z,21.45
2022-08-26T15:12:24.952Z,20.23
2022-08-26T15:15:03.161Z,18.48
2022-08-26T15:17:40.517Z,20.85
2022-08-26T15:20:11.188Z,19.80
2022-08-26T15:22:44.585Z,22.50
2022-08-26T15:25:15.039Z,21.77
2022-08-26T15:27:45.720Z,16.48
2022-08-26T15:30:12.868Z,17.95
2022-08-26T15:32:39.401Z,16.48
2022-08-26T15:35:09.057Z,16.88
2022-08-26T15:37:42.395Z,16.20
2022-08-26T15:40:09.863Z,16.42
2022-08-26T15:43:25.498Z,16.75
2022-08-26T15:45:55.888Z,17.08
2022-08-26T15:48:26.679Z,20.05
2022-08-26T15:50:57.609Z,20.90
2022-08-26T15:53:24.801Z,21.90
2022-08-26T15:55:54.836Z,21.35
2022-08-26T15:58:24.970Z,22.50
2022-08-26T16:01:00.099Z,25.75
2022-08-26T16:03:30.695Z,32.77
2022-08-26T16:05:57.196Z,29.83
2022-08-26T16:08:27.894Z,28.05
2022-08-26T16:10:56.598Z,28.83
2022-08-26T16:13:23.554Z,29.80
2022-08-26T16:15:50.721Z,31.50
2022-08-26T16:18:17.476Z,34.70
2022-08-26T16:21:08.779Z,39.22
2022-08-26T16:23:45.170Z,36.30
2022-08-26T16:26:25.935Z,34.40
2022-08-26T16:28:52.573Z,34.17
2022-08-26T16:31:21.295Z,37.42
2022-08-26T16:33:48.093Z,35.38
2022-08-26T16:36:15.040Z,35.53
2022-08-26T16:38:47.243Z,36.08
2022-08-26T16:41:16.275Z,33.87
2022-08-26T16:43:42.713Z,34.83
2022-08-26T16:46:11.271Z,36.13
2022-08-26T16:48:37.840Z,33.85
2022-08-26T16:51:09.998Z,33.40
2022-08-26T16:53:36.438Z,33.80
2022-08-26T16:56:03.270Z,32.42
2022-08-26T16:58:30.119Z,31.95
2022-08-26T17:00:59.783Z,34.42
2022-08-26T17:03:29.543Z,37.00
2022-08-26T17:05:56.055Z,32.33
2022-08-26T17:08:28.938Z,33.28
2022-08-26T17:10:56.266Z,31.77
2022-08-26T17:13:34.834Z,34.63
2022-08-26T17:16:06.212Z,32.50
2022-08-26T17:18:34.211Z,31.20
2022-08-26T17:21:03.915Z,29.35
2022-08-26T17:23:35.550Z,31.30
2022-08-26T17:26:04.376Z,32.05
2022-08-26T17:28:31.996Z,31.08
2022-08-26T17:30:59.450Z,30.37
2022-08-26T17:33:26.356Z,28.90
2022-08-26T17:35:55.898Z,26.08
2022-08-26T17:38:23.305Z,35.40
2022-08-26T17:40:50.291Z,26.98
2022-08-26T17:43:22.380Z,26.27
2022-08-26T17:45:51.828Z,24.13
2022-08-26T17:48:21.310Z,26.85
2022-08-26T17:50:49.705Z,29.92
2022-08-26T17:53:19.528Z,26.67
2022-08-26T17:55:48.217Z,22.23
2022-08-26T17:58:17.242Z,23.48
2022-08-26T18:00:54.467Z,20.50
2022-08-26T18:03:20.975Z,21.48
2022-08-26T18:05:53.465Z,21.90
2022-08-26T18:08:24.212Z,19.33
2022-08-26T18:10:50.892Z,20.17
2022-08-26T18:13:21.884Z,17.83
2022-08-26T18:15:48.368Z,25.75
2022-08-26T18:18:22.058Z,23.13
2022-08-26T18:21:01.363Z,15.90
2022-08-26T18:23:28.580Z,19.50
2022-08-26T18:26:00.999Z,19.50
2022-08-26T18:28:27.759Z,19.50
2022-08-26T18:30:54.285Z,15.55
2022-08-26T18:33:23.924Z,21.73
2022-08-26T18:35:50.369Z,20.45
2022-08-26T18:38:17.381Z,18.30
2022-08-26T18:40:45.583Z,17.10
2022-08-26T18:43:12.175Z,16.42
2022-08-26T18:45:38.624Z,15.70
2022-08-26T18:48:05.430Z,17.25
2022-08-26T18:50:31.999Z,17.85
2022-08-26T18:52:58.446Z,19.33
2022-08-26T18:55:25.355Z,40.97
2022-08-26T18:57:51.815Z,25.37
2022-08-26T19:00:18.302Z,19.67
2022-08-26T19:02:50.506Z,18.17
2022-08-26T19:05:19.353Z,18.63
2022-08-26T19:07:46.152Z,20.63
2022-08-26T19:10:14.922Z,20.73
2022-08-26T19:12:42.369Z,17.50
2022-08-26T19:15:10.866Z,18.77
2022-08-26T19:17:37.414Z,18.20
2022-08-26T19:20:05.121Z,20.00
2022-08-26T19:22:31.770Z,19.50
2022-08-26T19:24:58.199Z,17.65
2022-08-26T19:27:24.701Z,21.45
2022-08-26T19:29:51.203Z,19.85
2022-08-26T19:32:18.033Z,22.30
2022-08-26T19:34:44.489Z,19.63
2022-08-26T19:37:11.226Z,19.63
2022-08-26T19:39:37.781Z,20.08
2022-08-26T19:42:04.458Z,18.70
2022-08-26T19:44:49.336Z,19.20
2022-08-26T19:47:15.903Z,19.20
2022-08-26T19:49:42.489Z,18.45
2022-08-26T19:52:11.023Z,27.48
2022-08-26T19:54:38.309Z,23.05
2022-08-26T19:57:05.233Z,20.20
2022-08-26T19:59:33.079Z,20.90
2022-08-26T20:02:00.434Z,20.95
2022-08-26T20:04:28.940Z,17.40
2022-08-26T20:06:57.732Z,19.45
2022-08-26T20:09:27.217Z,20.98
2022-08-26T20:11:54.021Z,19.63
2022-08-26T20:14:23.488Z,21.30
2022-08-26T20:16:50.040Z,19.75
2022-08-26T20:19:37.468Z,22.17
2022-08-26T20:22:07.736Z,20.52
2022-08-26T20:24:35.525Z,19.27
2022-08-26T20:27:07.253Z,18.05
2022-08-26T20:29:38.213Z,20.33
2022-08-26T20:32:07.720Z,21.80
2022-08-26T20:34:35.688Z,23.85
2022-08-26T20:37:03.079Z,20.30
2022-08-26T20:39:29.797Z,20.80
2022-08-26T20:41:57.233Z,18.10
2022-08-26T20:44:24.421Z,22.40
2022-08-26T20:46:51.337Z,18.65
2022-08-26T20:49:18.582Z,20.73
2022-08-26T20:51:48.108Z,19.48
2022-08-26T20:54:14.500Z,22.58
2022-08-26T20:56:40.977Z,21.27
2022-08-26T20:59:08.028Z,20.38
2022-08-26T21:01:36.252Z,18.37
2022-08-26T21:04:06.669Z,19.10
2022-08-26T21:06:34.006Z,17.20
2022-08-26T21:09:02.213Z,20.02
2022-08-26T21:11:29.190Z,24.33
2022-08-26T21:14:07.508Z,19.03
2022-08-26T21:16:43.389Z,21.13
2022-08-26T21:19:12.407Z,20.40
2022-08-26T21:21:40.613Z,19.67
2022-08-26T21:24:07.296Z,19.33
2022-08-26T21:26:33.749Z,18.43
2022-08-26T21:29:01.204Z,19.30
2022-08-26T21:31:29.565Z,21.77
2022-08-26T21:33:56.040Z,20.02
2022-08-26T21:36:22.477Z,20.08
2022-08-26T21:38:48.890Z,17.77
2022-08-26T21:41:19.766Z,22.05
2022-08-26T21:43:48.334Z,19.63
2022-08-26T21:46:19.318Z,22.33
2022-08-26T21:48:58.380Z,18.25
2022-08-26T21:51:27.752Z,18.80
2022-08-26T21:53:56.229Z,18.85
2022-08-26T21:56:25.768Z,20.15
2022-08-26T21:58:53.625Z,18.98
2022-08-26T22:01:22.237Z,20.20
2022-08-26T22:03:49.851Z,18.77
2022-08-26T22:06:18.346Z,18.92
2022-08-26T22:08:44.801Z,19.35
2022-08-26T22:11:12.144Z,19.17
2022-08-26T22:13:40.767Z,19.00
2022-08-26T22:16:08.228Z,20.43
2022-08-26T22:18:35.832Z,20.20
2022-08-26T22:21:06.609Z,17.15
2022-08-26T22:23:34.412Z,21.45
2022-08-26T22:26:01.241Z,18.48
2022-08-26T22:28:28.280Z,19.77
2022-08-26T22:30:55.605Z,22.30
2022-08-26T22:33:23.093Z,18.73
2022-08-26T22:35:51.300Z,22.10
2022-08-26T22:38:18.388Z,17.20
2022-08-26T22:40:47.692Z,19.77
2022-08-26T22:43:14.338Z,18.27
2022-08-26T22:45:43.430Z,16.70
2022-08-26T22:48:11.776Z,17.65
2022-08-26T22:50:38.506Z,20.05
2022-08-26T22:53:04.969Z,21.73
2022-08-26T22:55:31.456Z,19.45
2022-08-26T22:57:57.985Z,18.77
2022-08-26T23:00:32.035Z,19.70
2022-08-26T23:02:59.075Z,20.73
2022-08-26T23:05:25.612Z,17.93
2022-08-26T23:07:52.136Z,18.55
2022-08-26T23:10:18.689Z,17.70
2022-08-26T23:12:45.181Z,19.80
2022-08-26T23:15:12.622Z,19.08
2022-08-26T23:17:39.648Z,18.60
2022-08-26T23:20:10.132Z,19.40
2022-08-26T23:22:37.084Z,16.15
2022-08-26T23:25:07.729Z,17.52
2022-08-26T23:27:39.987Z,18.52
2022-08-26T23:30:12.045Z,18.97
2022-08-26T23:32:38.911Z,17.17
2022-08-26T23:35:06.623Z,18.33
2022-08-26T23:37:36.946Z,16.83
2022-08-26T23:40:12.516Z,17.35
2022-08-26T23:42:39.462Z,18.47
2022-08-26T23:45:08.131Z,16.63
2022-08-26T23:47:34.695Z,18.67
2022-08-26T23:50:01.187Z,17.27
2022-08-26T23:52:46.994Z,18.50
2022-08-26T23:55:14.353Z,19.50
2022-08-26T23:57:41.334Z,17.38
